X  Close Metar Aviation Weather Data     KVAD Moody Air Force Base
Temperature
72°F Temperature
64°F Dewpoint
78% Humidity



Wind
0 MPH
0 KM/H
0 M/S
0 KTS



Calm
N
Current Conditions

Clear Clear
Pressure 1012.92 (hPa) - 29.91 (inHg)
Visibility 10 (mile) - 16.1 (km)
Airport
Airport-code KVAD

Location: Moody Air Force Base
Distance: 5 (mi)

Metar:
KVAD 270155Z AUTO 00000KT 10SM CLR 22/18 A2991 RMK AO2 SLP129 T02190179 $

Time: 26-09-2022 21:55 EDT